Terminal Aerodrome Forecast
Issued by NWS

Home | Current Version | Previous Version | Text Only | Print | Product List | Glossary On
Versions: 1 2 3 4 5 6 7 8 9 10 11 12 13 14 15 16 17 18 19 20
494
FTUS46 KPDT 051902 AAA
TAFDLS
TAF AMD
KDLS 051902Z 0519/0618 VRB04KT P6SM BKN080 OVC090
     FM052100 30002KT 5SM -SHRASN BR BKN030 BKN040 OVC050
      TEMPO 0521/0523 2SM -SHSN BR OVC020
     FM060000 28003KT P6SM VCSH SCT050 BKN080
     FM060100 VRB03KT P6SM SCT050 BKN080
     FM061200 VRB04KT P6SM BKN035 BKN050=

USA.gov is the U.S. government's official web portal to all federal, state and local government web resources and services.